Terminal Aerodrome Forecast
Issued by NWS Green Bay, WI

Home | Current Version | Previous Version | Text Only | Print | Product List | Glossary On
Versions: 1 2 3 4 5 6 7 8 9 10 11 12 13 14 15 16 17 18 19 20 21 22 23 24 25 26 27 28 29 30 31 32 33 34 35 36 37 38 39 40 41
000
FTUS43 KGRB 011200 AAB
TAFGRB
TAF AMD
KGRB 011253Z 0113/0212 04020G30KT 6SM -SN OVC035
      TEMPO 0113/0116 2SM -SN BLSN BKN020
     FM011600 03020G30KT P6SM -SN OVC035
      TEMPO 0116/0120 3SM -SN BLSN BKN022
     FM012100 03017G28KT P6SM -SN SCT030 BKN060
     FM020100 01015G23KT P6SM SCT035 BKN070
     FM020600 35011KT P6SM SCT070 BKN120=

USA.gov is the U.S. government's official web portal to all federal, state and local government web resources and services.